sensor_id;sensor_type;location;lat;lon;timestamp;pressure;altitude;pressure_sealevel;temperature;humidity
23433;BME280;41331;45.412;10.992;2024-02-21T00:00:18;101891.88;;;9.33;100.00
23433;BME280;41331;45.412;10.992;2024-02-21T00:02:47;101891.09;;;8.93;100.00
23433;BME280;41331;45.412;10.992;2024-02-21T00:05:15;101899.22;;;8.98;100.00
23433;BME280;41331;45.412;10.992;2024-02-21T00:07:43;101894.28;;;9.05;100.00
23433;BME280;41331;45.412;10.992;2024-02-21T00:10:10;101893.97;;;9.12;100.00
23433;BME280;41331;45.412;10.992;2024-02-21T00:12:38;101889.84;;;9.20;100.00
23433;BME280;41331;45.412;10.992;2024-02-21T00:15:07;101889.03;;;9.19;100.00
23433;BME280;41331;45.412;10.992;2024-02-21T00:17:35;101890.34;;;9.22;100.00
23433;BME280;41331;45.412;10.992;2024-02-21T00:20:03;101894.47;;;9.19;100.00
23433;BME280;41331;45.412;10.992;2024-02-21T00:22:31;101887.25;;;9.04;100.00
23433;BME280;41331;45.412;10.992;2024-02-21T00:25:01;101896.66;;;9.12;100.00
23433;BME280;41331;45.412;10.992;2024-02-21T00:27:29;101893.19;;;9.06;100.00
23433;BME280;41331;45.412;10.992;2024-02-21T00:29:57;101888.25;;;9.14;100.00
23433;BME280;41331;45.412;10.992;2024-02-21T00:32:25;101894.50;;;9.14;100.00
23433;BME280;41331;45.412;10.992;2024-02-21T00:34:53;101889.03;;;9.19;100.00
23433;BME280;41331;45.412;10.992;2024-02-21T00:37:21;101889.22;;;9.28;100.00
23433;BME280;41331;45.412;10.992;2024-02-21T00:39:49;101886.75;;;9.31;100.00
23433;BME280;41331;45.412;10.992;2024-02-21T00:42:18;101881.53;;;9.40;100.00
23433;BME280;41331;45.412;10.992;2024-02-21T00:44:46;101883.13;;;9.41;100.00
23433;BME280;41331;45.412;10.992;2024-02-21T00:47:13;101889.69;;;9.40;100.00
23433;BME280;41331;45.412;10.992;2024-02-21T00:49:41;101880.75;;;9.34;100.00
23433;BME280;41331;45.412;10.992;2024-02-21T00:52:09;101875.38;;;9.29;100.00
23433;BME280;41331;45.412;10.992;2024-02-21T00:54:37;101880.84;;;9.24;100.00
23433;BME280;41331;45.412;10.992;2024-02-21T00:57:19;101874.25;;;9.30;100.00
23433;BME280;41331;45.412;10.992;2024-02-21T00:59:47;101874.31;;;9.25;100.00
23433;BME280;41331;45.412;10.992;2024-02-21T01:02:14;101873.75;;;9.23;100.00
23433;BME280;41331;45.412;10.992;2024-02-21T01:04:43;101869.16;;;9.24;100.00
23433;BME280;41331;45.412;10.992;2024-02-21T01:07:11;101875.13;;;9.26;100.00
23433;BME280;41331;45.412;10.992;2024-02-21T01:09:38;101869.72;;;9.21;100.00
23433;BME280;41331;45.412;10.992;2024-02-21T01:12:06;101872.69;;;9.24;100.00
23433;BME280;41331;45.412;10.992;2024-02-21T01:14:34;101870.56;;;9.16;100.00
23433;BME280;41331;45.412;10.992;2024-02-21T01:17:02;101870.09;;;9.09;100.00
23433;BME280;41331;45.412;10.992;2024-02-21T01:19:30;101877.22;;;9.00;100.00
23433;BME280;41331;45.412;10.992;2024-02-21T01:21:58;101865.56;;;8.99;100.00
23433;BME280;41331;45.412;10.992;2024-02-21T01:24:26;101866.41;;;8.95;100.00
23433;BME280;41331;45.412;10.992;2024-02-21T01:26:53;101863.97;;;8.88;100.00
23433;BME280;41331;45.412;10.992;2024-02-21T01:29:21;101860.19;;;8.89;100.00
23433;BME280;41331;45.412;10.992;2024-02-21T01:31:49;101862.91;;;8.89;100.00
23433;BME280;41331;45.412;10.992;2024-02-21T01:34:17;101868.47;;;8.69;100.00
23433;BME280;41331;45.412;10.992;2024-02-21T01:36:45;101864.16;;;8.57;100.00
23433;BME280;41331;45.412;10.992;2024-02-21T01:39:12;101864.00;;;8.39;100.00
23433;BME280;41331;45.412;10.992;2024-02-21T01:41:40;101860.22;;;8.29;100.00
23433;BME280;41331;45.412;10.992;2024-02-21T01:44:08;101861.34;;;8.23;100.00
23433;BME280;41331;45.412;10.992;2024-02-21T01:46:36;101862.13;;;8.29;100.00
23433;BME280;41331;45.412;10.992;2024-02-21T01:49:04;101869.97;;;8.41;100.00
23433;BME280;41331;45.412;10.992;2024-02-21T01:51:33;101870.44;;;8.53;100.00
23433;BME280;41331;45.412;10.992;2024-02-21T01:54:01;101871.75;;;8.61;100.00
23433;BME280;41331;45.412;10.992;2024-02-21T01:56:29;101864.69;;;8.65;100.00
23433;BME280;41331;45.412;10.992;2024-02-21T01:58:57;101871.38;;;8.77;100.00
23433;BME280;41331;45.412;10.992;2024-02-21T02:01:25;101867.06;;;8.76;100.00
23433;BME280;41331;45.412;10.992;2024-02-21T02:03:55;101857.59;;;8.74;100.00
23433;BME280;41331;45.412;10.992;2024-02-21T02:06:22;101858.69;;;8.68;100.00
23433;BME280;41331;45.412;10.992;2024-02-21T02:08:51;101855.13;;;8.72;100.00
23433;BME280;41331;45.412;10.992;2024-02-21T02:11:18;101855.91;;;8.78;100.00
23433;BME280;41331;45.412;10.992;2024-02-21T02:13:47;101860.78;;;8.81;100.00
23433;BME280;41331;45.412;10.992;2024-02-21T02:16:15;101854.94;;;8.64;100.00
23433;BME280;41331;45.412;10.992;2024-02-21T02:18:42;101841.41;;;8.53;100.00
23433;BME280;41331;45.412;10.992;2024-02-21T02:21:23;101845.50;;;8.51;100.00
23433;BME280;41331;45.412;10.992;2024-02-21T02:23:51;101853.84;;;8.60;100.00
23433;BME280;41331;45.412;10.992;2024-02-21T02:26:20;101850.84;;;8.61;100.00
23433;BME280;41331;45.412;10.992;2024-02-21T02:28:47;101863.63;;;8.61;100.00
23433;BME280;41331;45.412;10.992;2024-02-21T02:31:15;101856.09;;;8.47;100.00
23433;BME280;41331;45.412;10.992;2024-02-21T02:33:43;101850.69;;;8.42;100.00
23433;BME280;41331;45.412;10.992;2024-02-21T02:36:12;101839.81;;;8.42;100.00
23433;BME280;41331;45.412;10.992;2024-02-21T02:38:39;101839.78;;;8.52;100.00
23433;BME280;41331;45.412;10.992;2024-02-21T02:41:07;101844.72;;;8.45;100.00
23433;BME280;41331;45.412;10.992;2024-02-21T02:43:35;101839.00;;;8.47;100.00
23433;BME280;41331;45.412;10.992;2024-02-21T02:46:04;101830.06;;;8.41;100.00
23433;BME280;41331;45.412;10.992;2024-02-21T02:48:32;101837.41;;;8.41;100.00
23433;BME280;41331;45.412;10.992;2024-02-21T02:50:59;101830.31;;;8.50;100.00
23433;BME280;41331;45.412;10.992;2024-02-21T02:53:27;101828.91;;;8.52;100.00
23433;BME280;41331;45.412;10.992;2024-02-21T02:55:55;101831.69;;;8.42;100.00
23433;BME280;41331;45.412;10.992;2024-02-21T02:58:23;101829.25;;;8.41;100.00
23433;BME280;41331;45.412;10.992;2024-02-21T03:00:51;101829.00;;;8.37;100.00
23433;BME280;41331;45.412;10.992;2024-02-21T03:03:19;101829.81;;;8.32;100.00
23433;BME280;41331;45.412;10.992;2024-02-21T03:05:47;101831.69;;;8.42;100.00
23433;BME280;41331;45.412;10.992;2024-02-21T03:08:14;101842.81;;;8.46;100.00
23433;BME280;41331;45.412;10.992;2024-02-21T03:10:42;101828.69;;;8.49;100.00
23433;BME280;41331;45.412;10.992;2024-02-21T03:13:10;101833.59;;;8.42;100.00
23433;BME280;41331;45.412;10.992;2024-02-21T03:15:39;101828.41;;;8.50;100.00
23433;BME280;41331;45.412;10.992;2024-02-21T03:18:07;101834.13;;;8.49;100.00
23433;BME280;41331;45.412;10.992;2024-02-21T03:20:34;101839.25;;;8.50;100.00
23433;BME280;41331;45.412;10.992;2024-02-21T03:23:02;101845.16;;;8.57;100.00
23433;BME280;41331;45.412;10.992;2024-02-21T03:25:30;101841.69;;;8.52;100.00
23433;BME280;41331;45.412;10.992;2024-02-21T03:27:58;101841.38;;;8.59;100.00
23433;BME280;41331;45.412;10.992;2024-02-21T03:30:26;101848.09;;;8.66;100.00
23433;BME280;41331;45.412;10.992;2024-02-21T03:32:54;101852.19;;;8.69;100.00
23433;BME280;41331;45.412;10.992;2024-02-21T03:35:21;101843.81;;;8.60;100.00
23433;BME280;41331;45.412;10.992;2024-02-21T03:37:49;101857.41;;;8.55;100.00
23433;BME280;41331;45.412;10.992;2024-02-21T03:40:17;101848.47;;;8.54;100.00
23433;BME280;41331;45.412;10.992;2024-02-21T03:42:45;101846.03;;;8.48;100.00
23433;BME280;41331;45.412;10.992;2024-02-21T03:45:13;101856.09;;;8.42;100.00
23433;BME280;41331;45.412;10.992;2024-02-21T03:47:40;101852.31;;;8.38;100.00
23433;BME280;41331;45.412;10.992;2024-02-21T03:50:08;101857.47;;;8.35;100.00
23433;BME280;41331;45.412;10.992;2024-02-21T03:52:36;101848.25;;;8.36;100.00
23433;BME280;41331;45.412;10.992;2024-02-21T03:55:05;101854.00;;;8.24;100.00
23433;BME280;41331;45.412;10.992;2024-02-21T03:57:32;101851.00;;;8.25;100.00
23433;BME280;41331;45.412;10.992;2024-02-21T04:00:00;101843.41;;;8.27;100.00
23433;BME280;41331;45.412;10.992;2024-02-21T04:02:33;101851.31;;;8.19;100.00
23433;BME280;41331;45.412;10.992;2024-02-21T04:05:01;101846.19;;;8.07;100.00
23433;BME280;41331;45.412;10.992;2024-02-21T04:07:29;101838.38;;;8.00;100.00
23433;BME280;41331;45.412;10.992;2024-02-21T04:09:57;101843.25;;;8.03;100.00
23433;BME280;41331;45.412;10.992;2024-02-21T04:12:25;101836.47;;;8.01;100.00
23433;BME280;41331;45.412;10.992;2024-02-21T04:14:53;101847.81;;;8.03;100.00
23433;BME280;41331;45.412;10.992;2024-02-21T04:17:21;101854.09;;;8.03;100.00
23433;BME280;41331;45.412;10.992;2024-02-21T04:19:49;101852.97;;;8.10;100.00
23433;BME280;41331;45.412;10.992;2024-02-21T04:22:16;101849.69;;;8.13;100.00
23433;BME280;41331;45.412;10.992;2024-02-21T04:24:44;101851.06;;;8.10;100.00
23433;BME280;41331;45.412;10.992;2024-02-21T04:27:12;101841.31;;;8.09;100.00
23433;BME280;41331;45.412;10.992;2024-02-21T04:29:40;101840.22;;;8.10;100.00
23433;BME280;41331;45.412;10.992;2024-02-21T04:32:07;101841.56;;;8.08;100.00
23433;BME280;41331;45.412;10.992;2024-02-21T04:34:36;101860.81;;;8.11;100.00
23433;BME280;41331;45.412;10.992;2024-02-21T04:37:04;101846.47;;;8.11;100.00
23433;BME280;41331;45.412;10.992;2024-02-21T04:39:32;101842.38;;;8.13;100.00
23433;BME280;41331;45.412;10.992;2024-02-21T04:42:00;101842.91;;;8.20;100.00
23433;BME280;41331;45.412;10.992;2024-02-21T04:44:28;101850.50;;;8.13;100.00
23433;BME280;41331;45.412;10.992;2024-02-21T04:46:56;101857.06;;;8.02;100.00
23433;BME280;41331;45.412;10.992;2024-02-21T04:49:23;101855.41;;;8.06;100.00
23433;BME280;41331;45.412;10.992;2024-02-21T04:51:51;101846.47;;;8.05;100.00
23433;BME280;41331;45.412;10.992;2024-02-21T04:54:19;101848.13;;;8.01;100.00
23433;BME280;41331;45.412;10.992;2024-02-21T04:56:47;101855.44;;;8.01;100.00
23433;BME280;41331;45.412;10.992;2024-02-21T04:59:19;101864.41;;;7.91;100.00
23433;BME280;41331;45.412;10.992;2024-02-21T05:01:47;101860.88;;;7.96;100.00
23433;BME280;41331;45.412;10.992;2024-02-21T05:04:14;101858.16;;;8.01;100.00
23433;BME280;41331;45.412;10.992;2024-02-21T05:06:43;101862.75;;;8.00;100.00
23433;BME280;41331;45.412;10.992;2024-02-21T05:09:11;101877.97;;;7.96;100.00
23433;BME280;41331;45.412;10.992;2024-02-21T05:11:39;101867.94;;;7.92;100.00
23433;BME280;41331;45.412;10.992;2024-02-21T05:14:07;101867.09;;;7.96;100.00
23433;BME280;41331;45.412;10.992;2024-02-21T05:16:35;101857.66;;;7.94;100.00
23433;BME280;41331;45.412;10.992;2024-02-21T05:19:03;101862.25;;;7.98;100.00
23433;BME280;41331;45.412;10.992;2024-02-21T05:21:32;101856.84;;;7.93;100.00
23433;BME280;41331;45.412;10.992;2024-02-21T05:24:00;101853.31;;;7.88;100.00
23433;BME280;41331;45.412;10.992;2024-02-21T05:26:28;101844.38;;;7.82;100.00
23433;BME280;41331;45.412;10.992;2024-02-21T05:28:56;101846.31;;;7.71;100.00
23433;BME280;41331;45.412;10.992;2024-02-21T05:31:23;101847.13;;;7.57;100.00
23433;BME280;41331;45.412;10.992;2024-02-21T05:33:51;101844.16;;;7.48;100.00
23433;BME280;41331;45.412;10.992;2024-02-21T05:36:19;101855.56;;;7.45;100.00
23433;BME280;41331;45.412;10.992;2024-02-21T05:38:47;101859.59;;;7.52;100.00
23433;BME280;41331;45.412;10.992;2024-02-21T05:41:15;101854.72;;;7.65;100.00
23433;BME280;41331;45.412;10.992;2024-02-21T05:43:43;101853.34;;;7.67;100.00
23433;BME280;41331;45.412;10.992;2024-02-21T05:46:10;101851.22;;;7.64;100.00
23433;BME280;41331;45.412;10.992;2024-02-21T05:48:38;101848.22;;;7.66;100.00
23433;BME280;41331;45.412;10.992;2024-02-21T05:51:06;101850.13;;;7.65;100.00
23433;BME280;41331;45.412;10.992;2024-02-21T05:53:34;101852.53;;;7.67;100.00
23433;BME280;41331;45.412;10.992;2024-02-21T05:56:04;101848.47;;;7.69;100.00
23433;BME280;41331;45.412;10.992;2024-02-21T05:58:32;101851.44;;;7.68;100.00
23433;BME280;41331;45.412;10.992;2024-02-21T06:01:00;101846.59;;;7.60;100.00
23433;BME280;41331;45.412;10.992;2024-02-21T06:03:29;101847.16;;;7.46;100.00
23433;BME280;41331;45.412;10.992;2024-02-21T06:05:57;101853.69;;;7.35;100.00
23433;BME280;41331;45.412;10.992;2024-02-21T06:08:26;101849.06;;;7.31;100.00
23433;BME280;41331;45.412;10.992;2024-02-21T06:10:54;101850.69;;;7.32;100.00
23433;BME280;41331;45.412;10.992;2024-02-21T06:13:23;101848.53;;;7.44;100.00
23433;BME280;41331;45.412;10.992;2024-02-21T06:15:51;101843.91;;;7.55;100.00
23433;BME280;41331;45.412;10.992;2024-02-21T06:18:20;101847.13;;;7.57;100.00
23433;BME280;41331;45.412;10.992;2024-02-21T06:20:48;101852.31;;;7.63;100.00
23433;BME280;41331;45.412;10.992;2024-02-21T06:23:16;101847.13;;;7.67;100.00
23433;BME280;41331;45.412;10.992;2024-02-21T06:25:44;101863.94;;;7.69;100.00
23433;BME280;41331;45.412;10.992;2024-02-21T06:28:12;101875.84;;;7.58;100.00
23433;BME280;41331;45.412;10.992;2024-02-21T06:30:40;101880.75;;;7.61;100.00
23433;BME280;41331;45.412;10.992;2024-02-21T06:33:08;101885.63;;;7.64;100.00
23433;BME280;41331;45.412;10.992;2024-02-21T06:35:36;101874.47;;;7.75;100.00
23433;BME280;41331;45.412;10.992;2024-02-21T06:38:05;101879.09;;;7.70;100.00
23433;BME280;41331;45.412;10.992;2024-02-21T06:40:33;101879.09;;;7.75;100.00
23433;BME280;41331;45.412;10.992;2024-02-21T06:43:19;101880.69;;;7.91;100.00
23433;BME280;41331;45.412;10.992;2024-02-21T06:45:47;101891.00;;;7.89;100.00
23433;BME280;41331;45.412;10.992;2024-02-21T06:48:18;101886.66;;;7.98;100.00
23433;BME280;41331;45.412;10.992;2024-02-21T06:50:47;101893.31;;;8.26;100.00
23433;BME280;41331;45.412;10.992;2024-02-21T06:53:15;101890.28;;;8.43;100.00
23433;BME280;41331;45.412;10.992;2024-02-21T06:55:43;101889.38;;;8.63;100.00
23433;BME280;41331;45.412;10.992;2024-02-21T06:58:11;101891.75;;;8.80;100.00
23433;BME280;41331;45.412;10.992;2024-02-21T07:00:40;101891.03;;;9.03;98.72
23433;BME280;41331;45.412;10.992;2024-02-21T07:03:08;101901.56;;;9.15;99.78
23433;BME280;41331;45.412;10.992;2024-02-21T07:05:36;101897.38;;;9.28;97.99
23433;BME280;41331;45.412;10.992;2024-02-21T07:08:04;101898.03;;;9.44;98.34
23433;BME280;41331;45.412;10.992;2024-02-21T07:10:32;101888.19;;;9.53;95.82
23433;BME280;41331;45.412;10.992;2024-02-21T07:13:00;101888.09;;;9.63;95.61
23433;BME280;41331;45.412;10.992;2024-02-21T07:15:28;101897.94;;;9.59;89.05
23433;BME280;41331;45.412;10.992;2024-02-21T07:17:58;101903.53;;;9.68;88.07
23433;BME280;41331;45.412;10.992;2024-02-21T07:20:27;101909.44;;;9.80;88.29
23433;BME280;41331;45.412;10.992;2024-02-21T07:22:55;101917.19;;;9.92;85.84
23433;BME280;41331;45.412;10.992;2024-02-21T07:25:23;101903.81;;;10.24;84.80
23433;BME280;41331;45.412;10.992;2024-02-21T07:27:50;101906.41;;;10.34;87.15
23433;BME280;41331;45.412;10.992;2024-02-21T07:30:18;101904.44;;;10.40;85.10
23433;BME280;41331;45.412;10.992;2024-02-21T07:32:49;101896.72;;;10.47;84.45
23433;BME280;41331;45.412;10.992;2024-02-21T07:35:18;101900.72;;;10.74;82.54
23433;BME280;41331;45.412;10.992;2024-02-21T07:37:46;101901.84;;;10.92;82.30
23433;BME280;41331;45.412;10.992;2024-02-21T07:40:15;101903.28;;;11.22;81.29
23433;BME280;41331;45.412;10.992;2024-02-21T07:42:43;101903.91;;;11.51;78.61
23433;BME280;41331;45.412;10.992;2024-02-21T07:45:17;101909.06;;;11.34;77.79
23433;BME280;41331;45.412;10.992;2024-02-21T07:47:46;101907.34;;;11.57;75.00
23433;BME280;41331;45.412;10.992;2024-02-21T07:50:14;101922.63;;;11.72;73.10
23433;BME280;41331;45.412;10.992;2024-02-21T07:52:42;101933.97;;;11.46;72.36
23433;BME280;41331;45.412;10.992;2024-02-21T07:55:10;101932.31;;;11.31;73.21
23433;BME280;41331;45.412;10.992;2024-02-21T07:57:38;101931.97;;;11.84;70.92
23433;BME280;41331;45.412;10.992;2024-02-21T08:00:06;101928.09;;;12.32;68.56
23433;BME280;41331;45.412;10.992;2024-02-21T08:02:40;101923.91;;;12.48;67.06
23433;BME280;41331;45.412;10.992;2024-02-21T08:05:08;101925.88;;;12.84;65.93
23433;BME280;41331;45.412;10.992;2024-02-21T08:07:36;101925.59;;;13.66;62.79
23433;BME280;41331;45.412;10.992;2024-02-21T08:10:04;101933.09;;;13.83;61.57
23433;BME280;41331;45.412;10.992;2024-02-21T08:12:35;101924.44;;;14.30;61.32
23433;BME280;41331;45.412;10.992;2024-02-21T08:15:03;101931.69;;;14.91;57.63
23433;BME280;41331;45.412;10.992;2024-02-21T08:17:31;101933.00;;;15.02;57.86
23433;BME280;41331;45.412;10.992;2024-02-21T08:19:59;101934.59;;;15.03;55.84
23433;BME280;41331;45.412;10.992;2024-02-21T08:22:27;101936.03;;;14.84;56.14
23433;BME280;41331;45.412;10.992;2024-02-21T08:24:55;101941.69;;;15.05;55.32
23433;BME280;41331;45.412;10.992;2024-02-21T08:27:23;101942.66;;;15.09;54.88
23433;BME280;41331;45.412;10.992;2024-02-21T08:29:51;101939.06;;;15.77;54.12
23433;BME280;41331;45.412;10.992;2024-02-21T08:32:18;101935.53;;;16.15;52.24
23433;BME280;41331;45.412;10.992;2024-02-21T08:34:46;101932.03;;;16.65;51.88
23433;BME280;41331;45.412;10.992;2024-02-21T08:37:14;101924.53;;;16.83;52.22
23433;BME280;41331;45.412;10.992;2024-02-21T08:39:42;101914.94;;;17.43;50.83
23433;BME280;41331;45.412;10.992;2024-02-21T08:42:10;101916.56;;;17.44;49.81
23433;BME280;41331;45.412;10.992;2024-02-21T08:44:39;101921.97;;;17.20;50.36
23433;BME280;41331;45.412;10.992;2024-02-21T08:47:07;101916.72;;;17.06;49.08
23433;BME280;41331;45.412;10.992;2024-02-21T08:49:38;101911.41;;;17.22;48.82
23433;BME280;41331;45.412;10.992;2024-02-21T08:52:06;101915.19;;;17.96;47.41
23433;BME280;41331;45.412;10.992;2024-02-21T08:54:33;101909.13;;;17.90;48.09
23433;BME280;41331;45.412;10.992;2024-02-21T08:57:01;101906.94;;;17.96;47.49
23433;BME280;41331;45.412;10.992;2024-02-21T08:59:31;101916.34;;;18.07;47.44
23433;BME280;41331;45.412;10.992;2024-02-21T09:01:59;101920.56;;;18.90;44.44
23433;BME280;41331;45.412;10.992;2024-02-21T09:04:27;101909.41;;;18.99;44.72
23433;BME280;41331;45.412;10.992;2024-02-21T09:06:55;101908.06;;;18.80;44.53
23433;BME280;41331;45.412;10.992;2024-02-21T09:09:23;101906.31;;;18.88;44.74
23433;BME280;41331;45.412;10.992;2024-02-21T09:11:55;101909.09;;;19.16;43.70
23433;BME280;41331;45.412;10.992;2024-02-21T09:14:22;101895.66;;;19.58;43.46
23433;BME280;41331;45.412;10.992;2024-02-21T09:16:50;101901.47;;;19.25;44.13
23433;BME280;41331;45.412;10.992;2024-02-21T09:19:18;101910.78;;;19.49;43.15
23433;BME280;41331;45.412;10.992;2024-02-21T09:21:46;101900.50;;;19.05;43.21
23433;BME280;41331;45.412;10.992;2024-02-21T09:24:14;101896.59;;;19.78;41.96
23433;BME280;41331;45.412;10.992;2024-02-21T09:26:42;101898.50;;;20.41;40.75
23433;BME280;41331;45.412;10.992;2024-02-21T09:29:10;101898.09;;;20.07;42.52
23433;BME280;41331;45.412;10.992;2024-02-21T09:31:38;101904.59;;;20.31;42.71
23433;BME280;41331;45.412;10.992;2024-02-21T09:34:06;101899.28;;;19.90;42.49
23433;BME280;41331;45.412;10.992;2024-02-21T09:36:34;101895.06;;;20.99;40.59
23433;BME280;41331;45.412;10.992;2024-02-21T09:39:02;101894.38;;;20.66;39.96
23433;BME280;41331;45.412;10.992;2024-02-21T09:41:30;101883.63;;;20.81;40.11
23433;BME280;41331;45.412;10.992;2024-02-21T09:43:58;101893.91;;;19.82;42.35
23433;BME280;41331;45.412;10.992;2024-02-21T09:46:53;101888.94;;;19.87;41.72
23433;BME280;41331;45.412;10.992;2024-02-21T09:49:42;101889.91;;;20.11;41.57
23433;BME280;41331;45.412;10.992;2024-02-21T09:52:12;101892.50;;;20.20;43.42
23433;BME280;41331;45.412;10.992;2024-02-21T09:54:41;101890.16;;;20.73;40.11
23433;BME280;41331;45.412;10.992;2024-02-21T09:57:13;101884.06;;;20.32;40.91
23433;BME280;41331;45.412;10.992;2024-02-21T09:59:41;101895.88;;;19.81;43.11
23433;BME280;41331;45.412;10.992;2024-02-21T10:02:11;101883.34;;;19.56;44.08
23433;BME280;41331;45.412;10.992;2024-02-21T10:04:40;101879.91;;;20.06;42.01
23433;BME280;41331;45.412;10.992;2024-02-21T10:07:08;101877.16;;;19.90;42.66
23433;BME280;41331;45.412;10.992;2024-02-21T10:09:36;101877.72;;;19.80;43.04
23433;BME280;41331;45.412;10.992;2024-02-21T10:12:11;101875.91;;;19.72;44.65
23433;BME280;41331;45.412;10.992;2024-02-21T10:14:40;101875.41;;;18.82;47.14
23433;BME280;41331;45.412;10.992;2024-02-21T10:17:14;101878.78;;;19.04;47.60
23433;BME280;41331;45.412;10.992;2024-02-21T10:19:42;101877.63;;;19.05;47.13
23433;BME280;41331;45.412;10.992;2024-02-21T10:22:10;101874.91;;;19.21;46.68
23433;BME280;41331;45.412;10.992;2024-02-21T10:24:38;101875.75;;;18.81;48.75
23433;BME280;41331;45.412;10.992;2024-02-21T10:27:09;101876.13;;;18.79;49.28
23433;BME280;41331;45.412;10.992;2024-02-21T10:29:40;101887.97;;;18.68;50.22
23433;BME280;41331;45.412;10.992;2024-02-21T10:32:13;101885.16;;;18.27;51.85
23433;BME280;41331;45.412;10.992;2024-02-21T10:34:42;101875.38;;;18.30;51.64
23433;BME280;41331;45.412;10.992;2024-02-21T10:37:12;101885.72;;;18.33;51.29
23433;BME280;41331;45.412;10.992;2024-02-21T10:39:41;101876.81;;;18.52;50.32
23433;BME280;41331;45.412;10.992;2024-02-21T10:42:14;101881.91;;;18.25;50.49
23433;BME280;41331;45.412;10.992;2024-02-21T10:44:45;101885.13;;;17.91;53.71
23433;BME280;41331;45.412;10.992;2024-02-21T10:47:19;101878.00;;;18.02;55.29
23433;BME280;41331;45.412;10.992;2024-02-21T10:50:00;101874.22;;;18.43;53.84
23433;BME280;41331;45.412;10.992;2024-02-21T10:52:51;101878.16;;;17.48;56.33
23433;BME280;41331;45.412;10.992;2024-02-21T10:55:35;101866.56;;;17.54;59.56
23433;BME280;41331;45.412;10.992;2024-02-21T10:58:05;101873.38;;;17.69;56.71
23433;BME280;41331;45.412;10.992;2024-02-21T11:00:33;101859.63;;;17.81;57.37
23433;BME280;41331;45.412;10.992;2024-02-21T11:03:02;101859.63;;;17.81;57.67
23433;BME280;41331;45.412;10.992;2024-02-21T11:05:31;101852.50;;;17.23;58.75
23433;BME280;41331;45.412;10.992;2024-02-21T11:08:00;101840.84;;;17.38;58.31
23433;BME280;41331;45.412;10.992;2024-02-21T11:10:29;101841.22;;;17.49;57.31
23433;BME280;41331;45.412;10.992;2024-02-21T11:13:09;101832.88;;;17.57;60.28
23433;BME280;41331;45.412;10.992;2024-02-21T11:15:37;101825.31;;;17.21;59.57
23433;BME280;41331;45.412;10.992;2024-02-21T11:18:05;101820.53;;;17.30;63.28
23433;BME280;41331;45.412;10.992;2024-02-21T11:20:37;101822.41;;;17.51;63.05
23433;BME280;41331;45.412;10.992;2024-02-21T11:23:05;101802.78;;;17.28;63.46
23433;BME280;41331;45.412;10.992;2024-02-21T11:25:33;101799.50;;;17.59;63.13
23433;BME280;41331;45.412;10.992;2024-02-21T11:28:03;101805.94;;;17.75;61.66
23433;BME280;41331;45.412;10.992;2024-02-21T11:30:35;101797.81;;;17.79;61.56
23433;BME280;41331;45.412;10.992;2024-02-21T11:33:06;101791.72;;;17.85;62.48
23433;BME280;41331;45.412;10.992;2024-02-21T11:35:35;101789.88;;;17.90;62.57
23433;BME280;41331;45.412;10.992;2024-02-21T11:38:13;101784.56;;;17.48;62.90
23433;BME280;41331;45.412;10.992;2024-02-21T11:40:46;101781.34;;;17.46;64.51
23433;BME280;41331;45.412;10.992;2024-02-21T11:43:18;101786.50;;;17.35;63.45
23433;BME280;41331;45.412;10.992;2024-02-21T11:45:46;101782.75;;;17.64;63.82
23433;BME280;41331;45.412;10.992;2024-02-21T11:48:14;101785.41;;;17.97;62.01
23433;BME280;41331;45.412;10.992;2024-02-21T11:50:42;101770.63;;;17.77;63.07
23433;BME280;41331;45.412;10.992;2024-02-21T11:53:10;101776.56;;;17.79;62.96
23433;BME280;41331;45.412;10.992;2024-02-21T11:55:38;101765.91;;;17.78;61.84
23433;BME280;41331;45.412;10.992;2024-02-21T11:58:06;101760.13;;;17.46;63.73
23433;BME280;41331;45.412;10.992;2024-02-21T12:00:33;101756.38;;;17.63;63.56
23433;BME280;41331;45.412;10.992;2024-02-21T12:03:01;101749.34;;;17.66;63.68
23433;BME280;41331;45.412;10.992;2024-02-21T12:05:31;101757.78;;;17.12;65.62
23433;BME280;41331;45.412;10.992;2024-02-21T12:08:00;101752.97;;;17.08;68.15
23433;BME280;41331;45.412;10.992;2024-02-21T12:10:28;101752.25;;;16.99;67.56
23433;BME280;41331;45.412;10.992;2024-02-21T12:13:08;101744.88;;;17.61;65.44
23433;BME280;41331;45.412;10.992;2024-02-21T12:15:40;101729.31;;;17.77;65.35
23433;BME280;41331;45.412;10.992;2024-02-21T12:18:10;101732.97;;;18.34;61.53
23433;BME280;41331;45.412;10.992;2024-02-21T12:20:38;101723.00;;;18.29;61.49
23433;BME280;41331;45.412;10.992;2024-02-21T12:23:10;101722.38;;;17.96;63.67
23433;BME280;41331;45.412;10.992;2024-02-21T12:25:38;101709.91;;;17.25;66.27
23433;BME280;41331;45.412;10.992;2024-02-21T12:28:07;101700.47;;;17.87;65.08
23433;BME280;41331;45.412;10.992;2024-02-21T12:30:35;101699.44;;;18.04;64.88
23433;BME280;41331;45.412;10.992;2024-02-21T12:33:07;101689.81;;;17.85;63.81
23433;BME280;41331;45.412;10.992;2024-02-21T12:35:34;101686.97;;;18.22;62.07
23433;BME280;41331;45.412;10.992;2024-02-21T12:38:03;101693.53;;;17.53;63.78
23433;BME280;41331;45.412;10.992;2024-02-21T12:40:31;101688.66;;;17.86;64.40
23433;BME280;41331;45.412;10.992;2024-02-21T12:43:00;101680.31;;;17.83;63.32
23433;BME280;41331;45.412;10.992;2024-02-21T12:45:30;101680.50;;;18.02;63.35
23433;BME280;41331;45.412;10.992;2024-02-21T12:47:58;101678.25;;;17.55;62.08